createdAt,value
2018-07-02T00:00:02.614Z,17.30
2018-07-02T00:02:30.943Z,17.30
2018-07-02T00:07:27.901Z,17.30
2018-07-02T00:09:56.165Z,17.30
2018-07-02T00:12:24.854Z,17.30
2018-07-02T00:17:21.758Z,17.40
2018-07-02T00:19:49.928Z,17.50
2018-07-02T00:22:18.091Z,17.60
2018-07-02T00:24:46.379Z,17.60
2018-07-02T00:27:14.546Z,17.50
2018-07-02T00:29:42.715Z,17.50
2018-07-02T00:32:10.882Z,17.50
2018-07-02T00:34:39.180Z,17.50
2018-07-02T00:37:07.368Z,17.50
2018-07-02T00:39:35.553Z,17.50
2018-07-02T00:42:03.738Z,17.40
2018-07-02T00:44:32.544Z,17.40
2018-07-02T00:47:00.755Z,17.40
2018-07-02T00:49:28.928Z,17.30
2018-07-02T00:51:57.089Z,17.30
2018-07-02T00:54:25.409Z,17.20
2018-07-02T00:56:53.736Z,17.10
2018-07-02T00:59:21.908Z,17.10
2018-07-02T01:01:50.116Z,17.10
2018-07-02T01:04:18.357Z,17.00
2018-07-02T01:06:46.531Z,16.90
2018-07-02T01:09:14.730Z,16.90
2018-07-02T01:11:42.919Z,16.80
2018-07-02T01:14:11.156Z,16.70
2018-07-02T01:16:39.346Z,16.70
2018-07-02T01:19:07.526Z,16.60
2018-07-02T01:21:35.697Z,16.50
2018-07-02T01:24:03.979Z,16.50
2018-07-02T01:26:32.151Z,16.50
2018-07-02T01:29:00.323Z,16.40
2018-07-02T01:31:28.524Z,16.30
2018-07-02T01:33:56.768Z,16.30
2018-07-02T01:36:24.952Z,16.20
2018-07-02T01:38:54.012Z,16.20
2018-07-02T01:41:22.208Z,16.20
2018-07-02T01:43:50.495Z,16.10
2018-07-02T01:46:18.660Z,16.10
2018-07-02T01:48:46.819Z,16.10
2018-07-02T01:51:14.992Z,16.00
2018-07-02T01:53:43.292Z,16.00
2018-07-02T01:56:11.474Z,16.00
2018-07-02T01:58:39.644Z,15.90
2018-07-02T02:01:07.843Z,15.90
2018-07-02T02:03:36.059Z,15.90
2018-07-02T02:06:04.512Z,16.00
2018-07-02T02:08:32.684Z,16.00
2018-07-02T02:11:00.860Z,16.00
2018-07-02T02:13:29.096Z,16.00
2018-07-02T02:15:57.291Z,16.00
2018-07-02T02:18:26.167Z,16.00
2018-07-02T02:20:54.549Z,16.00
2018-07-02T02:23:22.795Z,15.90
2018-07-02T02:25:50.988Z,15.90
2018-07-02T02:28:19.181Z,16.00
2018-07-02T02:30:47.416Z,16.00
2018-07-02T02:33:15.679Z,16.00
2018-07-02T02:35:43.835Z,16.00
2018-07-02T02:38:12.026Z,15.90
2018-07-02T02:40:40.184Z,15.90
2018-07-02T02:43:08.384Z,15.90
2018-07-02T02:45:36.660Z,15.90
2018-07-02T02:48:04.835Z,15.80
2018-07-02T02:50:33.033Z,15.80
2018-07-02T02:53:01.268Z,15.70
2018-07-02T02:55:29.440Z,15.70
2018-07-02T02:57:57.625Z,15.60
2018-07-02T03:00:26.385Z,15.60
2018-07-02T03:02:54.590Z,15.40
2018-07-02T03:05:22.758Z,15.30
2018-07-02T03:07:50.924Z,15.40
2018-07-02T03:10:19.130Z,15.30
2018-07-02T03:12:48.109Z,15.20
2018-07-02T03:15:16.283Z,15.20
2018-07-02T03:17:44.461Z,15.10
2018-07-02T03:20:12.728Z,15.10
2018-07-02T03:22:40.883Z,15.00
2018-07-02T03:25:09.060Z,14.80
2018-07-02T03:27:37.342Z,14.80
2018-07-02T03:30:05.827Z,14.80
2018-07-02T03:32:33.980Z,14.80
2018-07-02T03:35:02.179Z,14.80
2018-07-02T03:37:30.426Z,14.80
2018-07-02T03:39:58.628Z,14.70
2018-07-02T03:42:26.891Z,14.70
2018-07-02T03:44:55.167Z,14.60
2018-07-02T03:47:23.456Z,14.60
2018-07-02T03:49:51.636Z,14.60
2018-07-02T03:52:19.818Z,14.60
2018-07-02T03:54:48.100Z,14.60
2018-07-02T03:57:16.281Z,14.50
2018-07-02T03:59:44.471Z,14.50
2018-07-02T04:02:12.655Z,14.50
2018-07-02T04:07:08.864Z,14.40
2018-07-02T04:09:37.064Z,14.40
2018-07-02T04:12:05.223Z,14.50
2018-07-02T04:14:33.464Z,14.40
2018-07-02T04:17:01.629Z,14.40
2018-07-02T04:19:30.299Z,14.40
2018-07-02T04:21:59.376Z,14.40
2018-07-02T04:26:55.704Z,14.40
2018-07-02T04:29:23.888Z,14.40
2018-07-02T04:31:52.084Z,14.50
2018-07-02T04:34:20.271Z,14.50
2018-07-02T04:36:48.435Z,14.50
2018-07-02T04:39:16.599Z,14.50
2018-07-02T04:44:12.784Z,14.50
2018-07-02T04:46:40.946Z,14.50
2018-07-02T04:49:09.107Z,14.60
2018-07-02T04:51:37.338Z,14.60
2018-07-02T04:54:05.562Z,14.60
2018-07-02T04:56:33.747Z,14.60
2018-07-02T04:59:01.936Z,14.70
2018-07-02T05:01:30.127Z,14.70
2018-07-02T05:03:58.364Z,14.70
2018-07-02T05:06:26.627Z,14.70
2018-07-02T05:08:54.951Z,14.80
2018-07-02T05:11:23.004Z,14.90
2018-07-02T05:13:51.440Z,14.90
2018-07-02T05:16:19.604Z,15.00
2018-07-02T05:21:15.703Z,15.10
2018-07-02T05:23:43.960Z,15.00
2018-07-02T05:26:12.121Z,15.10
2018-07-02T05:28:40.302Z,15.10
2018-07-02T05:31:08.516Z,15.20
2018-07-02T05:33:36.755Z,15.20
2018-07-02T05:36:05.320Z,15.30
2018-07-02T05:38:33.685Z,15.30
2018-07-02T05:41:01.676Z,15.30
2018-07-02T05:43:30.499Z,15.40
2018-07-02T05:45:58.683Z,15.50
2018-07-02T05:48:26.877Z,15.50
2018-07-02T05:50:55.033Z,15.60
2018-07-02T05:53:23.245Z,15.70
2018-07-02T05:55:51.452Z,15.80
2018-07-02T05:58:19.672Z,15.80
2018-07-02T06:03:15.859Z,16.50
2018-07-02T06:05:44.044Z,17.60
2018-07-02T06:08:12.222Z,19.40
2018-07-02T06:10:40.392Z,21.20
2018-07-02T06:13:08.660Z,22.90
2018-07-02T06:15:36.815Z,24.90
2018-07-02T06:18:04.993Z,26.20
2018-07-02T06:20:33.151Z,27.20
2018-07-02T06:23:01.447Z,28.40
2018-07-02T06:25:29.653Z,28.50
2018-07-02T06:27:57.821Z,29.10
2018-07-02T06:30:26.053Z,29.50
2018-07-02T06:32:54.232Z,29.40
2018-07-02T06:35:22.435Z,30.00
2018-07-02T06:37:50.604Z,30.20
2018-07-02T06:40:18.903Z,30.40
2018-07-02T06:42:47.144Z,30.70
2018-07-02T06:45:15.341Z,30.60
2018-07-02T06:47:43.516Z,31.40
2018-07-02T06:50:12.160Z,31.20
2018-07-02T06:52:40.333Z,31.70
2018-07-02T06:55:08.521Z,32.50
2018-07-02T06:57:36.689Z,33.00
2018-07-02T07:00:05.787Z,32.60
2018-07-02T07:02:33.964Z,32.70
2018-07-02T07:05:02.238Z,33.30
2018-07-02T07:07:30.428Z,32.40
2018-07-02T07:09:58.600Z,32.10
2018-07-02T07:12:26.764Z,31.40
2018-07-02T07:14:54.943Z,31.50
2018-07-02T07:17:23.133Z,31.50
2018-07-02T07:19:51.299Z,31.50
2018-07-02T07:22:19.519Z,31.10
2018-07-02T07:27:15.715Z,30.90
2018-07-02T07:29:43.902Z,29.60
2018-07-02T07:32:12.117Z,29.30
2018-07-02T07:34:40.496Z,28.80
2018-07-02T07:39:36.665Z,27.50
2018-07-02T07:42:04.854Z,27.30
2018-07-02T07:44:33.124Z,27.10
2018-07-02T07:47:01.293Z,26.70
2018-07-02T07:49:31.824Z,26.60
2018-07-02T07:51:59.994Z,26.40
2018-07-02T07:54:28.380Z,26.20
2018-07-02T07:56:56.553Z,25.90
2018-07-02T07:59:24.777Z,25.70
2018-07-02T08:01:52.912Z,25.60
2018-07-02T08:04:21.180Z,25.40
2018-07-02T08:06:49.345Z,25.40
2018-07-02T08:09:17.520Z,25.40
2018-07-02T08:11:45.796Z,25.30
2018-07-02T08:14:14.040Z,25.50
2018-07-02T08:16:42.225Z,25.30
2018-07-02T08:19:10.382Z,25.40
2018-07-02T08:24:06.612Z,25.50
2018-07-02T08:29:02.815Z,25.60
2018-07-02T08:31:31.616Z,25.70
2018-07-02T08:33:59.860Z,25.70
2018-07-02T08:36:28.421Z,25.70
2018-07-02T08:41:24.535Z,25.60
2018-07-02T08:43:53.036Z,25.60
2018-07-02T08:46:21.307Z,25.60
2018-07-02T08:51:17.433Z,25.40
2018-07-02T08:53:45.654Z,25.50
2018-07-02T08:56:13.860Z,25.40
2018-07-02T08:58:42.026Z,25.50
2018-07-02T09:01:10.196Z,25.60
2018-07-02T09:03:38.479Z,25.70
2018-07-02T09:06:06.683Z,25.80
2018-07-02T09:08:34.877Z,25.90
2018-07-02T09:13:31.068Z,26.20
2018-07-02T09:15:59.251Z,26.10
2018-07-02T09:18:27.435Z,26.00
2018-07-02T09:20:55.621Z,26.00
2018-07-02T09:25:51.789Z,26.20
2018-07-02T09:28:19.996Z,26.10
2018-07-02T09:30:48.164Z,26.30
2018-07-02T09:33:16.431Z,26.30
2018-07-02T09:35:44.616Z,26.50
2018-07-02T09:38:12.835Z,26.60
2018-07-02T09:45:37.028Z,26.60
2018-07-02T09:48:05.321Z,26.80
2018-07-02T09:50:33.496Z,27.00
2018-07-02T09:53:01.700Z,27.00
2018-07-02T09:55:29.928Z,27.10
2018-07-02T09:57:58.120Z,27.20
2018-07-02T10:02:54.379Z,27.40
2018-07-02T10:07:50.496Z,27.40
2018-07-02T10:10:18.735Z,27.40
2018-07-02T10:12:46.889Z,27.40
2018-07-02T10:15:15.053Z,27.60
2018-07-02T10:17:43.243Z,27.80
2018-07-02T10:20:11.418Z,28.10
2018-07-02T10:22:39.693Z,28.10
2018-07-02T10:25:07.891Z,28.30
2018-07-02T10:27:36.077Z,28.30
2018-07-02T10:30:04.605Z,28.40
2018-07-02T10:32:32.792Z,28.40
2018-07-02T10:35:01.068Z,28.30
2018-07-02T10:37:29.477Z,28.40
2018-07-02T10:39:57.762Z,28.10
2018-07-02T10:42:25.968Z,28.00
2018-07-02T10:47:22.155Z,28.40
2018-07-02T10:49:50.839Z,28.40
2018-07-02T10:52:19.048Z,28.50
2018-07-02T10:54:47.302Z,28.70
2018-07-02T10:57:15.510Z,28.50
2018-07-02T11:02:11.644Z,28.90
2018-07-02T11:04:39.864Z,29.10
2018-07-02T11:07:08.041Z,29.30
2018-07-02T11:09:36.214Z,29.20
2018-07-02T11:12:04.407Z,29.10
2018-07-02T11:14:32.664Z,29.00
2018-07-02T11:17:00.880Z,29.20
2018-07-02T11:19:29.631Z,29.10
2018-07-02T11:27:00.776Z,29.40
2018-07-02T11:29:29.472Z,29.60
2018-07-02T11:31:57.660Z,29.70
2018-07-02T11:34:25.959Z,29.80
2018-07-02T11:36:54.189Z,29.90
2018-07-02T11:39:22.368Z,29.80
2018-07-02T11:41:50.544Z,29.80
2018-07-02T11:44:18.852Z,30.00
2018-07-02T11:46:47.136Z,30.00
2018-07-02T11:49:15.453Z,29.80
2018-07-02T11:56:39.961Z,30.00
2018-07-02T11:59:08.123Z,29.90
2018-07-02T12:01:36.313Z,30.00
2018-07-02T12:04:04.685Z,29.90
2018-07-02T12:06:32.846Z,29.90
2018-07-02T12:09:01.044Z,30.00
2018-07-02T12:13:58.253Z,30.40
2018-07-02T12:16:26.438Z,30.60
2018-07-02T12:18:54.654Z,30.50
2018-07-02T12:23:51.973Z,30.50
2018-07-02T12:26:20.193Z,30.40
2018-07-02T12:28:48.365Z,30.40
2018-07-02T12:31:16.540Z,30.60
2018-07-02T12:36:12.725Z,30.90
2018-07-02T12:38:40.927Z,31.10
2018-07-02T12:41:09.168Z,31.10
2018-07-02T12:43:37.425Z,31.30
2018-07-02T12:46:05.852Z,31.20
2018-07-02T12:48:34.037Z,31.20
2018-07-02T12:51:02.206Z,31.40
2018-07-02T12:53:30.479Z,31.70
2018-07-02T12:55:58.663Z,31.40
2018-07-02T12:58:26.920Z,31.40
2018-07-02T13:00:55.125Z,31.10
2018-07-02T13:03:23.452Z,31.20
2018-07-02T13:05:51.624Z,31.40
2018-07-02T13:08:19.803Z,31.70
2018-07-02T13:10:47.996Z,31.60
2018-07-02T13:13:16.299Z,31.60
2018-07-02T13:15:44.540Z,31.50
2018-07-02T13:18:12.750Z,31.50
2018-07-02T13:20:40.939Z,31.70
2018-07-02T13:25:37.168Z,32.30
2018-07-02T13:28:05.365Z,32.30
2018-07-02T13:30:33.568Z,32.20
2018-07-02T13:33:01.869Z,31.90
2018-07-02T13:35:30.113Z,32.20
2018-07-02T13:37:58.290Z,32.30
2018-07-02T13:40:26.464Z,32.40
2018-07-02T13:42:54.755Z,32.40
2018-07-02T13:45:22.952Z,32.30
2018-07-02T13:47:51.123Z,32.60
2018-07-02T13:50:19.291Z,32.70
2018-07-02T13:52:47.523Z,32.80
2018-07-02T13:55:15.803Z,32.70
2018-07-02T14:00:11.887Z,32.70
2018-07-02T14:02:40.085Z,32.60
2018-07-02T14:05:08.308Z,32.70
2018-07-02T14:07:36.574Z,32.70
2018-07-02T14:10:04.900Z,32.90
2018-07-02T14:12:33.136Z,32.80
2018-07-02T14:15:01.394Z,32.80
2018-07-02T14:17:29.579Z,32.60
2018-07-02T14:19:57.799Z,32.50
2018-07-02T14:22:25.944Z,32.40
2018-07-02T14:24:54.298Z,32.20
2018-07-02T14:27:22.530Z,32.30
2018-07-02T14:29:50.756Z,32.30
2018-07-02T14:32:18.940Z,32.40
2018-07-02T14:34:47.203Z,32.50
2018-07-02T14:37:15.436Z,32.50
2018-07-02T14:42:11.625Z,32.20
2018-07-02T14:44:40.151Z,32.30
2018-07-02T14:47:08.385Z,32.40
2018-07-02T14:49:36.572Z,32.30
2018-07-02T14:52:04.760Z,32.20
2018-07-02T14:54:33.067Z,32.30
2018-07-02T14:57:01.266Z,32.10
2018-07-02T14:59:29.434Z,32.10
2018-07-02T15:01:57.603Z,32.20
2018-07-02T15:04:25.908Z,32.00
2018-07-02T15:06:54.116Z,31.70
2018-07-02T15:09:22.292Z,31.70
2018-07-02T15:11:50.463Z,31.80
2018-07-02T15:14:18.691Z,31.80
2018-07-02T15:16:46.872Z,31.80
2018-07-02T15:19:15.040Z,31.70
2018-07-02T15:21:43.224Z,31.70
2018-07-02T15:24:11.577Z,31.30
2018-07-02T15:26:39.864Z,31.30
2018-07-02T15:29:08.042Z,31.30
2018-07-02T15:31:36.253Z,31.50
2018-07-02T15:34:04.845Z,31.30
2018-07-02T15:36:33.232Z,31.50
2018-07-02T15:41:29.395Z,31.10
2018-07-02T15:43:58.739Z,30.80
2018-07-02T15:46:26.951Z,31.00
2018-07-02T15:51:23.178Z,31.10
2018-07-02T15:53:51.417Z,30.80
2018-07-02T15:56:19.648Z,30.70
2018-07-02T16:01:15.796Z,30.90
2018-07-02T16:06:12.007Z,30.60
2018-07-02T16:08:40.691Z,30.60
2018-07-02T16:11:08.924Z,30.70
2018-07-02T16:13:37.241Z,30.80
2018-07-02T16:16:05.598Z,30.80
2018-07-02T16:18:33.985Z,30.70
2018-07-02T16:21:02.244Z,30.60
2018-07-02T16:23:31.356Z,30.50
2018-07-02T16:25:59.544Z,30.60
2018-07-02T16:28:27.828Z,30.40
2018-07-02T16:30:56.141Z,30.40
2018-07-02T16:33:24.448Z,30.30
2018-07-02T16:35:52.618Z,30.30
2018-07-02T16:38:20.813Z,30.40
2018-07-02T16:40:49.006Z,30.40
2018-07-02T16:43:17.259Z,30.40
2018-07-02T16:45:45.462Z,30.20
2018-07-02T16:50:41.667Z,30.30
2018-07-02T16:53:09.908Z,30.30
2018-07-02T16:55:38.152Z,30.10
2018-07-02T16:58:06.340Z,30.00
2018-07-02T17:03:02.896Z,29.70
2018-07-02T17:05:31.092Z,29.70
2018-07-02T17:07:59.260Z,29.70
2018-07-02T17:10:27.494Z,29.70
2018-07-02T17:12:55.726Z,29.70
2018-07-02T17:15:23.915Z,29.70
2018-07-02T17:17:52.101Z,29.60
2018-07-02T17:20:20.283Z,29.50
2018-07-02T17:22:48.584Z,29.30
2018-07-02T17:25:16.786Z,29.20
2018-07-02T17:27:45.001Z,29.30
2018-07-02T17:30:13.192Z,29.10
2018-07-02T17:32:41.412Z,29.10
2018-07-02T17:35:09.620Z,29.00
2018-07-02T17:37:37.842Z,28.80
2018-07-02T17:40:06.928Z,28.70
2018-07-02T17:45:03.279Z,28.80
2018-07-02T17:47:31.460Z,28.80
2018-07-02T17:49:59.652Z,28.80
2018-07-02T17:52:28.415Z,28.70
2018-07-02T17:55:11.512Z,28.50
2018-07-02T17:57:39.708Z,28.40
2018-07-02T18:00:07.915Z,28.20
2018-07-02T18:02:36.110Z,28.10
2018-07-02T18:05:04.737Z,27.90
2018-07-02T18:10:00.847Z,27.70
2018-07-02T18:12:29.085Z,27.60
2018-07-02T18:14:57.361Z,27.40
2018-07-02T18:17:25.556Z,27.30
2018-07-02T18:19:53.740Z,27.10
2018-07-02T18:22:21.980Z,26.90
2018-07-02T18:24:50.261Z,26.90
2018-07-02T18:27:19.029Z,26.80
2018-07-02T18:29:47.204Z,26.60
2018-07-02T18:32:15.391Z,26.50
2018-07-02T18:34:43.671Z,26.50
2018-07-02T18:37:11.877Z,26.60
2018-07-02T18:39:40.091Z,26.40
2018-07-02T18:42:08.278Z,26.20
2018-07-02T18:44:36.549Z,26.10
2018-07-02T18:47:04.916Z,25.90
2018-07-02T18:49:33.727Z,26.00
2018-07-02T18:52:01.912Z,25.90
2018-07-02T18:54:31.188Z,25.90
2018-07-02T18:56:59.476Z,25.90
2018-07-02T18:59:27.667Z,25.80
2018-07-02T19:01:55.881Z,25.90
2018-07-02T19:04:24.104Z,25.90
2018-07-02T19:06:52.277Z,25.90
2018-07-02T19:09:20.500Z,25.90
2018-07-02T19:11:48.690Z,25.80
2018-07-02T19:16:44.944Z,25.90
2018-07-02T19:19:13.128Z,25.90
2018-07-02T19:21:41.356Z,25.60
2018-07-02T19:24:10.460Z,25.20
2018-07-02T19:26:38.661Z,24.80
2018-07-02T19:29:06.938Z,24.50
2018-07-02T19:34:03.125Z,23.70
2018-07-02T19:36:31.336Z,23.50
2018-07-02T19:38:59.540Z,23.30
2018-07-02T19:41:27.750Z,23.10
2018-07-02T19:43:56.004Z,23.00
2018-07-02T19:46:24.375Z,22.90
2018-07-02T19:48:52.565Z,22.60
2018-07-02T19:51:20.768Z,22.50
2018-07-02T19:53:48.993Z,22.40
2018-07-02T19:56:17.264Z,22.30
2018-07-02T19:58:45.407Z,22.10
2018-07-02T20:01:13.616Z,22.00
2018-07-02T20:03:41.907Z,21.90
2018-07-02T20:06:10.100Z,21.80
2018-07-02T20:08:38.298Z,21.70
2018-07-02T20:11:06.523Z,21.60
2018-07-02T20:13:34.806Z,21.40
2018-07-02T20:16:03.039Z,21.40
2018-07-02T20:20:59.220Z,21.20
2018-07-02T20:23:27.520Z,21.20
2018-07-02T20:25:55.720Z,21.10
2018-07-02T20:28:23.944Z,20.90
2018-07-02T20:30:52.128Z,20.80
2018-07-02T20:33:20.379Z,20.70
2018-07-02T20:35:48.672Z,20.60
2018-07-02T20:38:16.911Z,20.60
2018-07-02T20:40:45.122Z,20.60
2018-07-02T20:43:13.405Z,20.50
2018-07-02T20:45:41.583Z,20.40
2018-07-02T20:48:09.791Z,20.30
2018-07-02T20:50:37.960Z,20.30
2018-07-02T20:53:06.210Z,20.10
2018-07-02T20:55:34.457Z,20.10
2018-07-02T20:58:02.661Z,20.10
2018-07-02T21:00:31.702Z,20.00
2018-07-02T21:03:01.212Z,20.00
2018-07-02T21:05:29.409Z,19.90
2018-07-02T21:07:57.752Z,19.70
2018-07-02T21:12:53.938Z,19.60
2018-07-02T21:15:22.793Z,19.50
2018-07-02T21:17:51.006Z,19.50
2018-07-02T21:20:19.227Z,19.50
2018-07-02T21:22:47.409Z,19.40
2018-07-02T21:27:43.548Z,19.20
2018-07-02T21:30:11.752Z,19.20
2018-07-02T21:32:39.936Z,19.10
2018-07-02T21:35:08.903Z,19.00
2018-07-02T21:37:37.124Z,18.90
2018-07-02T21:40:05.396Z,18.90
2018-07-02T21:42:33.617Z,18.80
2018-07-02T21:45:01.812Z,18.80
2018-07-02T21:47:30.025Z,18.60
2018-07-02T21:49:59.197Z,18.60
2018-07-02T21:52:27.367Z,18.50
2018-07-02T21:54:55.640Z,18.50
2018-07-02T21:57:23.828Z,18.50
2018-07-02T21:59:51.996Z,18.50
2018-07-02T22:02:20.180Z,18.40
2018-07-02T22:04:48.416Z,18.30
2018-07-02T22:07:16.633Z,18.30
2018-07-02T22:09:44.809Z,18.20
2018-07-02T22:12:13.018Z,18.20
2018-07-02T22:17:09.248Z,18.20
2018-07-02T22:19:37.425Z,18.10
2018-07-02T22:22:05.663Z,18.00
2018-07-02T22:24:33.934Z,18.00
2018-07-02T22:27:02.115Z,17.80
2018-07-02T22:29:30.321Z,17.80
2018-07-02T22:31:58.486Z,17.80
2018-07-02T22:34:27.051Z,17.70
2018-07-02T22:36:55.224Z,17.60
2018-07-02T22:39:29.940Z,17.70
2018-07-02T22:41:58.109Z,17.60
2018-07-02T22:44:26.381Z,17.50
2018-07-02T22:46:54.557Z,17.50
2018-07-02T22:49:22.732Z,17.50
2018-07-02T22:51:50.936Z,17.40
2018-07-02T22:54:19.158Z,17.40
2018-07-02T22:56:47.367Z,17.30
2018-07-02T22:59:15.574Z,17.30
2018-07-02T23:01:43.805Z,17.20
2018-07-02T23:04:11.970Z,17.20
2018-07-02T23:06:40.127Z,17.20
2018-07-02T23:09:09.405Z,17.10
2018-07-02T23:14:05.683Z,17.00
2018-07-02T23:16:33.921Z,17.00
2018-07-02T23:19:02.111Z,16.90
2018-07-02T23:21:30.291Z,16.90
2018-07-02T23:23:58.590Z,16.90
2018-07-02T23:26:26.756Z,16.80
2018-07-02T23:28:54.949Z,16.70
2018-07-02T23:31:23.135Z,16.70
2018-07-02T23:33:51.367Z,16.60
2018-07-02T23:36:19.559Z,16.60
2018-07-02T23:38:47.707Z,16.60
2018-07-02T23:41:15.880Z,16.60
2018-07-02T23:43:44.070Z,16.60
2018-07-02T23:46:12.261Z,16.50
2018-07-02T23:48:40.435Z,16.50
2018-07-02T23:51:08.597Z,16.50
2018-07-02T23:53:36.868Z,16.50
2018-07-02T23:56:05.292Z,16.40
2018-07-02T23:58:33.463Z,16.40
